sensor_id;sensor_type;location;lat;lon;timestamp;temperature;humidity
67147;DHT22;70072;52.036;5.558;2024-02-23T00:00:58;17.70;71.70
67147;DHT22;70072;52.036;5.558;2024-02-23T00:03:23;17.70;72.30
67147;DHT22;70072;52.036;5.558;2024-02-23T00:05:49;17.70;71.60
67147;DHT22;70072;52.036;5.558;2024-02-23T00:08:15;17.70;71.60
67147;DHT22;70072;52.036;5.558;2024-02-23T00:10:40;17.70;71.60
67147;DHT22;70072;52.036;5.558;2024-02-23T00:13:06;17.70;71.60
67147;DHT22;70072;52.036;5.558;2024-02-23T00:15:31;17.70;71.70
67147;DHT22;70072;52.036;5.558;2024-02-23T00:17:57;17.70;71.60
67147;DHT22;70072;52.036;5.558;2024-02-23T00:20:25;17.70;72.20
67147;DHT22;70072;52.036;5.558;2024-02-23T00:22:53;17.70;71.60
67147;DHT22;70072;52.036;5.558;2024-02-23T00:25:19;17.70;71.60
67147;DHT22;70072;52.036;5.558;2024-02-23T00:27:44;17.70;71.60
67147;DHT22;70072;52.036;5.558;2024-02-23T00:30:16;17.70;71.50
67147;DHT22;70072;52.036;5.558;2024-02-23T00:32:45;17.70;71.60
67147;DHT22;70072;52.036;5.558;2024-02-23T00:35:10;17.70;71.60
67147;DHT22;70072;52.036;5.558;2024-02-23T00:37:36;17.60;71.50
67147;DHT22;70072;52.036;5.558;2024-02-23T00:40:05;17.60;71.50
67147;DHT22;70072;52.036;5.558;2024-02-23T00:42:31;17.60;71.50
67147;DHT22;70072;52.036;5.558;2024-02-23T00:44:57;17.60;71.50
67147;DHT22;70072;52.036;5.558;2024-02-23T00:47:23;17.60;71.50
67147;DHT22;70072;52.036;5.558;2024-02-23T00:49:48;17.60;71.40
67147;DHT22;70072;52.036;5.558;2024-02-23T00:52:15;17.60;71.40
67147;DHT22;70072;52.036;5.558;2024-02-23T00:54:43;17.60;71.40
67147;DHT22;70072;52.036;5.558;2024-02-23T00:57:09;17.60;71.40
67147;DHT22;70072;52.036;5.558;2024-02-23T00:59:34;17.60;71.40
67147;DHT22;70072;52.036;5.558;2024-02-23T01:02:00;17.60;71.40
67147;DHT22;70072;52.036;5.558;2024-02-23T01:04:26;17.60;71.40
67147;DHT22;70072;52.036;5.558;2024-02-23T01:06:51;17.60;71.40
67147;DHT22;70072;52.036;5.558;2024-02-23T01:09:17;17.60;71.40
67147;DHT22;70072;52.036;5.558;2024-02-23T01:11:49;17.60;71.30
67147;DHT22;70072;52.036;5.558;2024-02-23T01:14:17;17.60;71.30
67147;DHT22;70072;52.036;5.558;2024-02-23T01:16:43;17.60;71.30
67147;DHT22;70072;52.036;5.558;2024-02-23T01:19:08;17.60;71.30
67147;DHT22;70072;52.036;5.558;2024-02-23T01:21:34;17.60;71.30
67147;DHT22;70072;52.036;5.558;2024-02-23T01:24:02;17.50;71.30
67147;DHT22;70072;52.036;5.558;2024-02-23T01:26:29;17.60;71.30
67147;DHT22;70072;52.036;5.558;2024-02-23T01:28:55;17.50;71.20
67147;DHT22;70072;52.036;5.558;2024-02-23T01:31:21;17.50;71.20
67147;DHT22;70072;52.036;5.558;2024-02-23T01:33:47;17.60;71.30
67147;DHT22;70072;52.036;5.558;2024-02-23T01:36:14;17.50;71.30
67147;DHT22;70072;52.036;5.558;2024-02-23T01:38:40;17.50;71.20
67147;DHT22;70072;52.036;5.558;2024-02-23T01:41:08;17.50;71.20
67147;DHT22;70072;52.036;5.558;2024-02-23T01:43:34;17.50;71.20
67147;DHT22;70072;52.036;5.558;2024-02-23T01:45:59;17.50;71.20
67147;DHT22;70072;52.036;5.558;2024-02-23T01:48:25;17.50;71.20
67147;DHT22;70072;52.036;5.558;2024-02-23T01:50:52;17.50;71.20
67147;DHT22;70072;52.036;5.558;2024-02-23T01:53:19;17.50;71.20
67147;DHT22;70072;52.036;5.558;2024-02-23T01:55:47;17.50;71.20
67147;DHT22;70072;52.036;5.558;2024-02-23T01:58:14;17.50;71.20
67147;DHT22;70072;52.036;5.558;2024-02-23T02:00:40;17.50;71.20
67147;DHT22;70072;52.036;5.558;2024-02-23T02:03:05;17.50;71.20
67147;DHT22;70072;52.036;5.558;2024-02-23T02:05:31;17.50;71.20
67147;DHT22;70072;52.036;5.558;2024-02-23T02:07:57;17.50;71.30
67147;DHT22;70072;52.036;5.558;2024-02-23T02:10:26;17.50;71.20
67147;DHT22;70072;52.036;5.558;2024-02-23T02:12:53;17.50;71.20
67147;DHT22;70072;52.036;5.558;2024-02-23T02:15:21;17.40;71.10
67147;DHT22;70072;52.036;5.558;2024-02-23T02:17:47;17.50;71.10
67147;DHT22;70072;52.036;5.558;2024-02-23T02:20:13;17.40;71.10
67147;DHT22;70072;52.036;5.558;2024-02-23T02:22:41;17.40;71.10
67147;DHT22;70072;52.036;5.558;2024-02-23T02:25:07;17.40;71.10
67147;DHT22;70072;52.036;5.558;2024-02-23T02:27:33;17.40;71.10
67147;DHT22;70072;52.036;5.558;2024-02-23T02:30:01;17.40;71.10
67147;DHT22;70072;52.036;5.558;2024-02-23T02:32:26;17.40;71.10
67147;DHT22;70072;52.036;5.558;2024-02-23T02:34:52;17.40;71.10
67147;DHT22;70072;52.036;5.558;2024-02-23T02:37:18;17.40;71.10
67147;DHT22;70072;52.036;5.558;2024-02-23T02:39:43;17.40;71.10
67147;DHT22;70072;52.036;5.558;2024-02-23T02:42:09;17.40;71.10
67147;DHT22;70072;52.036;5.558;2024-02-23T02:44:35;17.40;71.10
67147;DHT22;70072;52.036;5.558;2024-02-23T02:47:00;17.40;71.10
67147;DHT22;70072;52.036;5.558;2024-02-23T02:49:26;17.40;71.10
67147;DHT22;70072;52.036;5.558;2024-02-23T02:51:54;17.40;71.10
67147;DHT22;70072;52.036;5.558;2024-02-23T02:54:19;17.40;71.70
67147;DHT22;70072;52.036;5.558;2024-02-23T02:56:48;17.40;71.10
67147;DHT22;70072;52.036;5.558;2024-02-23T02:59:16;17.40;71.10
67147;DHT22;70072;52.036;5.558;2024-02-23T03:01:42;17.40;71.70
67147;DHT22;70072;52.036;5.558;2024-02-23T03:04:08;17.40;71.10
67147;DHT22;70072;52.036;5.558;2024-02-23T03:06:34;17.40;71.10
67147;DHT22;70072;52.036;5.558;2024-02-23T03:08:59;17.30;71.00
67147;DHT22;70072;52.036;5.558;2024-02-23T03:11:27;17.30;71.00
67147;DHT22;70072;52.036;5.558;2024-02-23T03:13:52;17.30;71.00
67147;DHT22;70072;52.036;5.558;2024-02-23T03:16:18;17.30;71.00
67147;DHT22;70072;52.036;5.558;2024-02-23T03:18:44;17.30;71.10
67147;DHT22;70072;52.036;5.558;2024-02-23T03:21:10;17.30;71.10
67147;DHT22;70072;52.036;5.558;2024-02-23T03:23:38;17.30;71.10
67147;DHT22;70072;52.036;5.558;2024-02-23T03:26:04;17.30;71.10
67147;DHT22;70072;52.036;5.558;2024-02-23T03:28:34;17.30;71.10
67147;DHT22;70072;52.036;5.558;2024-02-23T03:31:00;17.30;71.00
67147;DHT22;70072;52.036;5.558;2024-02-23T03:33:26;17.30;71.10
67147;DHT22;70072;52.036;5.558;2024-02-23T03:35:57;17.30;71.10
67147;DHT22;70072;52.036;5.558;2024-02-23T03:38:23;17.30;71.10
67147;DHT22;70072;52.036;5.558;2024-02-23T03:40:49;17.30;71.10
67147;DHT22;70072;52.036;5.558;2024-02-23T03:43:14;17.30;71.00
67147;DHT22;70072;52.036;5.558;2024-02-23T03:45:40;17.30;71.00
67147;DHT22;70072;52.036;5.558;2024-02-23T03:48:06;17.30;71.00
67147;DHT22;70072;52.036;5.558;2024-02-23T03:50:32;17.30;71.10
67147;DHT22;70072;52.036;5.558;2024-02-23T03:52:57;17.30;71.10
67147;DHT22;70072;52.036;5.558;2024-02-23T03:55:23;17.30;71.10
67147;DHT22;70072;52.036;5.558;2024-02-23T03:57:49;17.30;71.00
67147;DHT22;70072;52.036;5.558;2024-02-23T04:00:15;17.30;71.00
67147;DHT22;70072;52.036;5.558;2024-02-23T04:02:43;17.30;71.00
67147;DHT22;70072;52.036;5.558;2024-02-23T04:05:09;17.20;71.00
67147;DHT22;70072;52.036;5.558;2024-02-23T04:07:34;17.20;71.00
67147;DHT22;70072;52.036;5.558;2024-02-23T04:10:00;17.30;71.00
67147;DHT22;70072;52.036;5.558;2024-02-23T04:12:26;17.20;71.00
67147;DHT22;70072;52.036;5.558;2024-02-23T04:14:51;17.20;71.00
67147;DHT22;70072;52.036;5.558;2024-02-23T04:17:17;17.20;70.90
67147;DHT22;70072;52.036;5.558;2024-02-23T04:19:43;17.20;70.90
67147;DHT22;70072;52.036;5.558;2024-02-23T04:22:11;17.20;71.00
67147;DHT22;70072;52.036;5.558;2024-02-23T04:24:38;17.20;70.90
67147;DHT22;70072;52.036;5.558;2024-02-23T04:27:07;17.20;70.90
67147;DHT22;70072;52.036;5.558;2024-02-23T04:29:34;17.20;70.90
67147;DHT22;70072;52.036;5.558;2024-02-23T04:32:00;17.20;70.90
67147;DHT22;70072;52.036;5.558;2024-02-23T04:34:26;17.20;70.90
67147;DHT22;70072;52.036;5.558;2024-02-23T04:36:52;17.20;71.00
67147;DHT22;70072;52.036;5.558;2024-02-23T04:39:23;17.20;70.90
67147;DHT22;70072;52.036;5.558;2024-02-23T04:41:49;17.20;70.90
67147;DHT22;70072;52.036;5.558;2024-02-23T04:44:17;17.20;70.90
67147;DHT22;70072;52.036;5.558;2024-02-23T04:46:42;17.20;70.90
67147;DHT22;70072;52.036;5.558;2024-02-23T04:49:10;17.20;70.90
67147;DHT22;70072;52.036;5.558;2024-02-23T04:51:37;17.20;70.90
67147;DHT22;70072;52.036;5.558;2024-02-23T04:54:03;17.20;70.90
67147;DHT22;70072;52.036;5.558;2024-02-23T04:56:28;17.20;70.90
67147;DHT22;70072;52.036;5.558;2024-02-23T04:58:54;17.20;70.80
67147;DHT22;70072;52.036;5.558;2024-02-23T05:01:22;17.20;71.50
67147;DHT22;70072;52.036;5.558;2024-02-23T05:03:48;17.20;70.90
67147;DHT22;70072;52.036;5.558;2024-02-23T05:06:14;17.20;70.90
67147;DHT22;70072;52.036;5.558;2024-02-23T05:08:39;17.20;70.90
67147;DHT22;70072;52.036;5.558;2024-02-23T05:11:06;17.20;70.80
67147;DHT22;70072;52.036;5.558;2024-02-23T05:13:32;17.20;70.80
67147;DHT22;70072;52.036;5.558;2024-02-23T05:15:57;17.10;70.80
67147;DHT22;70072;52.036;5.558;2024-02-23T05:18:23;17.10;70.80
67147;DHT22;70072;52.036;5.558;2024-02-23T05:20:51;17.20;70.90
67147;DHT22;70072;52.036;5.558;2024-02-23T05:23:17;17.20;70.90
67147;DHT22;70072;52.036;5.558;2024-02-23T05:25:45;17.20;70.90
67147;DHT22;70072;52.036;5.558;2024-02-23T05:28:11;17.10;70.80
67147;DHT22;70072;52.036;5.558;2024-02-23T05:30:38;17.10;70.80
67147;DHT22;70072;52.036;5.558;2024-02-23T05:33:07;17.20;70.90
67147;DHT22;70072;52.036;5.558;2024-02-23T05:35:32;17.10;70.80
67147;DHT22;70072;52.036;5.558;2024-02-23T05:37:58;17.10;70.80
67147;DHT22;70072;52.036;5.558;2024-02-23T05:40:24;17.10;70.80
67147;DHT22;70072;52.036;5.558;2024-02-23T05:42:49;17.10;71.40
67147;DHT22;70072;52.036;5.558;2024-02-23T05:45:15;17.10;70.80
67147;DHT22;70072;52.036;5.558;2024-02-23T05:47:41;17.20;70.80
67147;DHT22;70072;52.036;5.558;2024-02-23T05:50:08;17.10;70.80
67147;DHT22;70072;52.036;5.558;2024-02-23T05:52:37;17.10;70.80
67147;DHT22;70072;52.036;5.558;2024-02-23T05:55:03;17.10;70.80
67147;DHT22;70072;52.036;5.558;2024-02-23T05:57:29;17.20;70.80
67147;DHT22;70072;52.036;5.558;2024-02-23T05:59:55;17.10;71.40
67147;DHT22;70072;52.036;5.558;2024-02-23T06:02:22;17.10;70.80
67147;DHT22;70072;52.036;5.558;2024-02-23T06:04:50;17.10;70.80
67147;DHT22;70072;52.036;5.558;2024-02-23T06:07:15;17.10;70.80
67147;DHT22;70072;52.036;5.558;2024-02-23T06:09:46;17.10;70.80
67147;DHT22;70072;52.036;5.558;2024-02-23T06:12:11;17.10;70.70
67147;DHT22;70072;52.036;5.558;2024-02-23T06:14:37;17.10;70.80
67147;DHT22;70072;52.036;5.558;2024-02-23T06:17:05;17.10;70.70
67147;DHT22;70072;52.036;5.558;2024-02-23T06:19:32;17.10;70.70
67147;DHT22;70072;52.036;5.558;2024-02-23T06:21:57;17.10;70.70
67147;DHT22;70072;52.036;5.558;2024-02-23T06:24:23;17.10;70.70
67147;DHT22;70072;52.036;5.558;2024-02-23T06:26:49;17.10;70.80
67147;DHT22;70072;52.036;5.558;2024-02-23T06:29:15;17.10;70.80
67147;DHT22;70072;52.036;5.558;2024-02-23T06:31:40;17.10;70.70
67147;DHT22;70072;52.036;5.558;2024-02-23T06:34:07;17.10;70.70
67147;DHT22;70072;52.036;5.558;2024-02-23T06:36:36;17.10;70.80
67147;DHT22;70072;52.036;5.558;2024-02-23T06:39:02;17.10;70.80
67147;DHT22;70072;52.036;5.558;2024-02-23T06:41:30;17.10;70.70
67147;DHT22;70072;52.036;5.558;2024-02-23T06:43:56;17.10;70.70
67147;DHT22;70072;52.036;5.558;2024-02-23T06:46:22;17.10;70.70
67147;DHT22;70072;52.036;5.558;2024-02-23T06:48:48;17.10;70.80
67147;DHT22;70072;52.036;5.558;2024-02-23T06:51:13;17.10;70.70
67147;DHT22;70072;52.036;5.558;2024-02-23T06:53:41;17.10;70.70
67147;DHT22;70072;52.036;5.558;2024-02-23T06:56:09;17.10;70.80
67147;DHT22;70072;52.036;5.558;2024-02-23T06:58:37;17.10;70.80
67147;DHT22;70072;52.036;5.558;2024-02-23T07:01:03;17.10;70.80
67147;DHT22;70072;52.036;5.558;2024-02-23T07:03:28;17.10;70.80
67147;DHT22;70072;52.036;5.558;2024-02-23T07:05:55;17.10;70.80
67147;DHT22;70072;52.036;5.558;2024-02-23T07:08:23;17.10;70.80
67147;DHT22;70072;52.036;5.558;2024-02-23T07:10:49;17.10;70.80
67147;DHT22;70072;52.036;5.558;2024-02-23T07:13:14;17.10;70.70
67147;DHT22;70072;52.036;5.558;2024-02-23T07:15:40;17.10;70.70
67147;DHT22;70072;52.036;5.558;2024-02-23T07:18:06;17.10;70.70
67147;DHT22;70072;52.036;5.558;2024-02-23T07:20:37;17.10;70.70
67147;DHT22;70072;52.036;5.558;2024-02-23T07:23:04;17.10;70.70
67147;DHT22;70072;52.036;5.558;2024-02-23T07:25:29;17.10;70.70
67147;DHT22;70072;52.036;5.558;2024-02-23T07:27:55;17.10;70.70
67147;DHT22;70072;52.036;5.558;2024-02-23T07:30:21;17.10;70.60
67147;DHT22;70072;52.036;5.558;2024-02-23T07:32:49;17.10;70.70
67147;DHT22;70072;52.036;5.558;2024-02-23T07:35:15;17.10;70.60
67147;DHT22;70072;52.036;5.558;2024-02-23T07:37:41;17.10;70.60
67147;DHT22;70072;52.036;5.558;2024-02-23T07:40:07;17.20;70.60
67147;DHT22;70072;52.036;5.558;2024-02-23T07:42:33;17.10;70.60
67147;DHT22;70072;52.036;5.558;2024-02-23T07:45:02;17.10;70.60
67147;DHT22;70072;52.036;5.558;2024-02-23T07:47:30;17.10;70.60
67147;DHT22;70072;52.036;5.558;2024-02-23T07:49:55;17.10;70.60
67147;DHT22;70072;52.036;5.558;2024-02-23T07:52:21;17.10;70.60
67147;DHT22;70072;52.036;5.558;2024-02-23T07:54:50;17.10;70.60
67147;DHT22;70072;52.036;5.558;2024-02-23T07:57:18;17.20;70.60
67147;DHT22;70072;52.036;5.558;2024-02-23T07:59:43;17.10;70.50
67147;DHT22;70072;52.036;5.558;2024-02-23T08:02:12;17.10;70.50
67147;DHT22;70072;52.036;5.558;2024-02-23T08:04:38;17.20;70.50
67147;DHT22;70072;52.036;5.558;2024-02-23T08:07:04;17.20;70.60
67147;DHT22;70072;52.036;5.558;2024-02-23T08:09:30;17.20;70.50
67147;DHT22;70072;52.036;5.558;2024-02-23T08:11:55;17.20;70.50
67147;DHT22;70072;52.036;5.558;2024-02-23T08:14:21;17.20;70.50
67147;DHT22;70072;52.036;5.558;2024-02-23T08:16:47;17.20;70.50
67147;DHT22;70072;52.036;5.558;2024-02-23T08:19:12;17.20;70.50
67147;DHT22;70072;52.036;5.558;2024-02-23T08:21:39;17.20;70.50
67147;DHT22;70072;52.036;5.558;2024-02-23T08:24:07;17.20;70.50
67147;DHT22;70072;52.036;5.558;2024-02-23T08:26:35;17.20;70.40
67147;DHT22;70072;52.036;5.558;2024-02-23T08:29:01;17.20;70.40
67147;DHT22;70072;52.036;5.558;2024-02-23T08:31:26;17.20;70.40
67147;DHT22;70072;52.036;5.558;2024-02-23T08:33:52;17.20;70.40
67147;DHT22;70072;52.036;5.558;2024-02-23T08:36:17;17.20;70.40
67147;DHT22;70072;52.036;5.558;2024-02-23T08:38:43;17.30;70.40
67147;DHT22;70072;52.036;5.558;2024-02-23T08:41:09;17.30;70.40
67147;DHT22;70072;52.036;5.558;2024-02-23T08:43:36;17.30;70.40
67147;DHT22;70072;52.036;5.558;2024-02-23T08:46:02;17.30;70.40
67147;DHT22;70072;52.036;5.558;2024-02-23T08:48:28;17.30;70.40
67147;DHT22;70072;52.036;5.558;2024-02-23T08:50:56;17.30;70.40
67147;DHT22;70072;52.036;5.558;2024-02-23T08:53:24;17.30;71.00
67147;DHT22;70072;52.036;5.558;2024-02-23T08:55:51;17.30;70.40
67147;DHT22;70072;52.036;5.558;2024-02-23T08:58:17;17.30;70.40
67147;DHT22;70072;52.036;5.558;2024-02-23T09:00:43;17.30;70.40
67147;DHT22;70072;52.036;5.558;2024-02-23T09:03:10;17.30;70.40
67147;DHT22;70072;52.036;5.558;2024-02-23T09:05:36;17.30;70.40
67147;DHT22;70072;52.036;5.558;2024-02-23T09:08:02;17.30;70.40
67147;DHT22;70072;52.036;5.558;2024-02-23T09:10:32;17.30;70.40
67147;DHT22;70072;52.036;5.558;2024-02-23T09:12:58;17.30;70.50
67147;DHT22;70072;52.036;5.558;2024-02-23T09:15:23;17.30;70.50
67147;DHT22;70072;52.036;5.558;2024-02-23T09:17:49;17.30;70.50
67147;DHT22;70072;52.036;5.558;2024-02-23T09:20:15;17.30;71.00
67147;DHT22;70072;52.036;5.558;2024-02-23T09:22:41;17.30;70.50
67147;DHT22;70072;52.036;5.558;2024-02-23T09:25:09;17.30;70.50
67147;DHT22;70072;52.036;5.558;2024-02-23T09:27:34;17.30;70.50
67147;DHT22;70072;52.036;5.558;2024-02-23T09:30:04;17.30;70.40
67147;DHT22;70072;52.036;5.558;2024-02-23T09:32:31;17.30;70.40
67147;DHT22;70072;52.036;5.558;2024-02-23T09:34:59;17.30;70.40
67147;DHT22;70072;52.036;5.558;2024-02-23T09:37:25;17.30;70.40
67147;DHT22;70072;52.036;5.558;2024-02-23T09:39:53;17.30;70.30
67147;DHT22;70072;52.036;5.558;2024-02-23T09:42:20;17.30;70.30
67147;DHT22;70072;52.036;5.558;2024-02-23T09:45:00;17.30;70.30
67147;DHT22;70072;52.036;5.558;2024-02-23T09:47:27;17.40;70.30
67147;DHT22;70072;52.036;5.558;2024-02-23T09:49:54;17.40;70.30
67147;DHT22;70072;52.036;5.558;2024-02-23T09:52:21;17.40;70.20
67147;DHT22;70072;52.036;5.558;2024-02-23T09:54:47;17.30;70.20
67147;DHT22;70072;52.036;5.558;2024-02-23T09:57:14;17.40;70.20
67147;DHT22;70072;52.036;5.558;2024-02-23T09:59:41;17.40;70.20
67147;DHT22;70072;52.036;5.558;2024-02-23T10:02:20;17.40;70.20
67147;DHT22;70072;52.036;5.558;2024-02-23T10:04:48;17.40;70.10
67147;DHT22;70072;52.036;5.558;2024-02-23T10:07:15;17.40;70.20
67147;DHT22;70072;52.036;5.558;2024-02-23T10:09:41;17.40;70.20
67147;DHT22;70072;52.036;5.558;2024-02-23T10:12:10;17.40;70.20
67147;DHT22;70072;52.036;5.558;2024-02-23T10:14:36;17.40;70.20
67147;DHT22;70072;52.036;5.558;2024-02-23T10:17:01;17.40;70.20
67147;DHT22;70072;52.036;5.558;2024-02-23T10:19:29;17.40;70.80
67147;DHT22;70072;52.036;5.558;2024-02-23T10:21:56;17.40;70.20
67147;DHT22;70072;52.036;5.558;2024-02-23T10:24:23;17.40;70.20
67147;DHT22;70072;52.036;5.558;2024-02-23T10:26:51;17.40;70.20
67147;DHT22;70072;52.036;5.558;2024-02-23T10:29:17;17.40;70.20
67147;DHT22;70072;52.036;5.558;2024-02-23T10:31:44;17.40;70.20
67147;DHT22;70072;52.036;5.558;2024-02-23T10:34:13;17.40;70.10
67147;DHT22;70072;52.036;5.558;2024-02-23T10:36:43;17.40;70.10
67147;DHT22;70072;52.036;5.558;2024-02-23T10:39:11;17.40;70.10
67147;DHT22;70072;52.036;5.558;2024-02-23T10:41:39;17.40;70.10
67147;DHT22;70072;52.036;5.558;2024-02-23T10:44:07;17.40;70.10
67147;DHT22;70072;52.036;5.558;2024-02-23T10:46:37;17.40;70.10
67147;DHT22;70072;52.036;5.558;2024-02-23T10:49:03;17.40;70.10
67147;DHT22;70072;52.036;5.558;2024-02-23T10:51:30;17.40;70.10
67147;DHT22;70072;52.036;5.558;2024-02-23T10:53:59;17.40;70.10
67147;DHT22;70072;52.036;5.558;2024-02-23T10:56:25;17.40;70.10
67147;DHT22;70072;52.036;5.558;2024-02-23T10:58:55;17.40;70.10
67147;DHT22;70072;52.036;5.558;2024-02-23T11:01:21;17.40;70.10
67147;DHT22;70072;52.036;5.558;2024-02-23T11:03:48;17.40;70.10
67147;DHT22;70072;52.036;5.558;2024-02-23T11:06:23;17.40;70.10
67147;DHT22;70072;52.036;5.558;2024-02-23T11:08:52;17.40;70.10
67147;DHT22;70072;52.036;5.558;2024-02-23T11:11:18;17.40;70.10
67147;DHT22;70072;52.036;5.558;2024-02-23T11:13:45;17.40;70.10
67147;DHT22;70072;52.036;5.558;2024-02-23T11:16:22;17.40;70.10
67147;DHT22;70072;52.036;5.558;2024-02-23T11:19:04;17.40;70.00
67147;DHT22;70072;52.036;5.558;2024-02-23T11:21:37;17.40;70.10
67147;DHT22;70072;52.036;5.558;2024-02-23T11:24:04;17.40;70.10
67147;DHT22;70072;52.036;5.558;2024-02-23T11:26:31;17.40;70.10
67147;DHT22;70072;52.036;5.558;2024-02-23T11:29:11;17.40;70.10
67147;DHT22;70072;52.036;5.558;2024-02-23T11:31:44;17.40;70.00
67147;DHT22;70072;52.036;5.558;2024-02-23T11:34:10;17.40;70.00
67147;DHT22;70072;52.036;5.558;2024-02-23T11:36:38;17.40;70.10
67147;DHT22;70072;52.036;5.558;2024-02-23T11:39:07;17.40;70.10
67147;DHT22;70072;52.036;5.558;2024-02-23T11:41:36;17.40;70.00
67147;DHT22;70072;52.036;5.558;2024-02-23T11:44:01;17.40;70.00
67147;DHT22;70072;52.036;5.558;2024-02-23T11:46:31;17.40;70.10
67147;DHT22;70072;52.036;5.558;2024-02-23T11:48:56;17.40;70.00
67147;DHT22;70072;52.036;5.558;2024-02-23T11:51:23;17.40;70.00
67147;DHT22;70072;52.036;5.558;2024-02-23T11:53:50;17.50;70.00
67147;DHT22;70072;52.036;5.558;2024-02-23T11:56:16;17.40;70.00
67147;DHT22;70072;52.036;5.558;2024-02-23T11:58:43;17.50;70.00
67147;DHT22;70072;52.036;5.558;2024-02-23T12:01:08;17.50;70.00
67147;DHT22;70072;52.036;5.558;2024-02-23T12:03:34;17.50;70.00
67147;DHT22;70072;52.036;5.558;2024-02-23T12:06:01;17.50;69.90
67147;DHT22;70072;52.036;5.558;2024-02-23T12:08:29;17.50;69.90
67147;DHT22;70072;52.036;5.558;2024-02-23T12:10:55;17.50;69.80
67147;DHT22;70072;52.036;5.558;2024-02-23T12:13:22;17.50;69.80
67147;DHT22;70072;52.036;5.558;2024-02-23T12:15:48;17.50;69.80
67147;DHT22;70072;52.036;5.558;2024-02-23T12:18:14;17.50;69.80
67147;DHT22;70072;52.036;5.558;2024-02-23T12:20:42;17.50;69.80
67147;DHT22;70072;52.036;5.558;2024-02-23T12:23:10;17.50;69.80
67147;DHT22;70072;52.036;5.558;2024-02-23T12:25:37;17.50;69.70
67147;DHT22;70072;52.036;5.558;2024-02-23T12:28:02;17.50;69.70
67147;DHT22;70072;52.036;5.558;2024-02-23T12:30:30;17.60;69.70
67147;DHT22;70072;52.036;5.558;2024-02-23T12:33:09;17.60;69.70
67147;DHT22;70072;52.036;5.558;2024-02-23T12:35:35;17.60;69.60
67147;DHT22;70072;52.036;5.558;2024-02-23T12:38:04;17.60;69.70
67147;DHT22;70072;52.036;5.558;2024-02-23T12:40:32;17.60;69.60
67147;DHT22;70072;52.036;5.558;2024-02-23T12:42:57;17.60;69.60
67147;DHT22;70072;52.036;5.558;2024-02-23T12:45:25;17.60;69.60
67147;DHT22;70072;52.036;5.558;2024-02-23T12:47:53;17.60;69.60
67147;DHT22;70072;52.036;5.558;2024-02-23T12:50:19;17.60;69.60
67147;DHT22;70072;52.036;5.558;2024-02-23T12:52:44;17.60;69.60
67147;DHT22;70072;52.036;5.558;2024-02-23T12:55:12;17.60;69.50
67147;DHT22;70072;52.036;5.558;2024-02-23T12:57:37;17.60;70.10
67147;DHT22;70072;52.036;5.558;2024-02-23T13:00:08;17.60;69.50
67147;DHT22;70072;52.036;5.558;2024-02-23T13:02:34;17.60;69.50
67147;DHT22;70072;52.036;5.558;2024-02-23T13:05:02;17.70;69.50
67147;DHT22;70072;52.036;5.558;2024-02-23T13:07:28;17.70;69.50
67147;DHT22;70072;52.036;5.558;2024-02-23T13:09:55;17.70;69.40
67147;DHT22;70072;52.036;5.558;2024-02-23T13:12:21;17.60;69.40
67147;DHT22;70072;52.036;5.558;2024-02-23T13:14:47;17.60;69.40
67147;DHT22;70072;52.036;5.558;2024-02-23T13:17:12;17.60;69.40
67147;DHT22;70072;52.036;5.558;2024-02-23T13:19:38;17.70;69.40
67147;DHT22;70072;52.036;5.558;2024-02-23T13:22:03;17.70;69.40
67147;DHT22;70072;52.036;5.558;2024-02-23T13:24:29;17.70;69.40
67147;DHT22;70072;52.036;5.558;2024-02-23T13:26:56;17.70;69.40
67147;DHT22;70072;52.036;5.558;2024-02-23T13:29:21;17.70;69.40
67147;DHT22;70072;52.036;5.558;2024-02-23T13:31:47;17.60;69.40
67147;DHT22;70072;52.036;5.558;2024-02-23T13:34:13;17.60;69.40
67147;DHT22;70072;52.036;5.558;2024-02-23T13:36:41;17.60;69.30
67147;DHT22;70072;52.036;5.558;2024-02-23T13:39:06;17.70;69.40
67147;DHT22;70072;52.036;5.558;2024-02-23T13:41:32;17.60;69.30
67147;DHT22;70072;52.036;5.558;2024-02-23T13:43:57;17.70;69.30
67147;DHT22;70072;52.036;5.558;2024-02-23T13:46:25;17.70;69.30
67147;DHT22;70072;52.036;5.558;2024-02-23T13:49:05;17.70;69.30
67147;DHT22;70072;52.036;5.558;2024-02-23T13:51:32;17.70;69.20
67147;DHT22;70072;52.036;5.558;2024-02-23T13:53:58;17.70;69.30
67147;DHT22;70072;52.036;5.558;2024-02-23T13:56:24;17.70;69.30
67147;DHT22;70072;52.036;5.558;2024-02-23T13:58:49;17.70;69.20
67147;DHT22;70072;52.036;5.558;2024-02-23T14:01:15;17.70;69.20
67147;DHT22;70072;52.036;5.558;2024-02-23T14:03:43;17.70;69.20
67147;DHT22;70072;52.036;5.558;2024-02-23T14:06:09;17.70;69.20
67147;DHT22;70072;52.036;5.558;2024-02-23T14:08:35;17.70;69.20
67147;DHT22;70072;52.036;5.558;2024-02-23T14:11:03;17.70;69.20
67147;DHT22;70072;52.036;5.558;2024-02-23T14:13:31;17.70;69.20
67147;DHT22;70072;52.036;5.558;2024-02-23T14:15:58;17.70;69.20
67147;DHT22;70072;52.036;5.558;2024-02-23T14:18:26;17.70;69.20
67147;DHT22;70072;52.036;5.558;2024-02-23T14:20:54;17.60;69.10
67147;DHT22;70072;52.036;5.558;2024-02-23T14:23:22;17.70;69.20
67147;DHT22;70072;52.036;5.558;2024-02-23T14:25:47;17.70;69.10
67147;DHT22;70072;52.036;5.558;2024-02-23T14:28:13;17.70;69.10
67147;DHT22;70072;52.036;5.558;2024-02-23T14:30:39;17.70;69.10
67147;DHT22;70072;52.036;5.558;2024-02-23T14:33:06;17.70;69.10
67147;DHT22;70072;52.036;5.558;2024-02-23T14:35:31;17.70;69.10
67147;DHT22;70072;52.036;5.558;2024-02-23T14:37:57;17.60;69.10
67147;DHT22;70072;52.036;5.558;2024-02-23T14:40:22;17.60;69.10
67147;DHT22;70072;52.036;5.558;2024-02-23T14:42:48;17.70;69.10
67147;DHT22;70072;52.036;5.558;2024-02-23T14:45:14;17.70;69.10
67147;DHT22;70072;52.036;5.558;2024-02-23T14:47:42;17.70;69.00
67147;DHT22;70072;52.036;5.558;2024-02-23T14:50:10;17.70;69.10
67147;DHT22;70072;52.036;5.558;2024-02-23T14:52:36;17.70;69.00
67147;DHT22;70072;52.036;5.558;2024-02-23T14:55:04;17.70;69.00
67147;DHT22;70072;52.036;5.558;2024-02-23T14:57:29;17.70;69.00
67147;DHT22;70072;52.036;5.558;2024-02-23T14:59:55;17.70;69.00
67147;DHT22;70072;52.036;5.558;2024-02-23T15:02:21;17.70;69.00
67147;DHT22;70072;52.036;5.558;2024-02-23T15:04:47;17.60;69.00
67147;DHT22;70072;52.036;5.558;2024-02-23T15:07:13;17.60;68.90
67147;DHT22;70072;52.036;5.558;2024-02-23T15:09:41;17.70;69.00
67147;DHT22;70072;52.036;5.558;2024-02-23T15:12:08;17.70;68.90
67147;DHT22;70072;52.036;5.558;2024-02-23T15:14:33;17.70;69.00
67147;DHT22;70072;52.036;5.558;2024-02-23T15:16:59;17.70;69.00
67147;DHT22;70072;52.036;5.558;2024-02-23T15:19:25;17.70;68.90
67147;DHT22;70072;52.036;5.558;2024-02-23T15:21:52;17.70;68.90
67147;DHT22;70072;52.036;5.558;2024-02-23T15:24:19;17.70;68.90
67147;DHT22;70072;52.036;5.558;2024-02-23T15:26:45;17.70;68.90